sensor_id;sensor_type;location;lat;lon;timestamp;pressure;altitude;pressure_sealevel;temperature;humidity
5879;BME280;2965;42.640;23.370;2023-04-05T04:02:58;93960.03;;;-0.24;100.00
5879;BME280;2965;42.640;23.370;2023-04-05T04:05:24;93962.84;;;-0.28;100.00
5879;BME280;2965;42.640;23.370;2023-04-05T04:07:50;93956.34;;;-0.32;100.00
5879;BME280;2965;42.640;23.370;2023-04-05T04:10:15;93955.53;;;-0.32;100.00
5879;BME280;2965;42.640;23.370;2023-04-05T04:12:44;93950.13;;;-0.39;100.00
5879;BME280;2965;42.640;23.370;2023-04-05T04:15:10;93946.59;;;-0.38;100.00
5879;BME280;2965;42.640;23.370;2023-04-05T04:17:36;93953.34;;;-0.37;100.00
5879;BME280;2965;42.640;23.370;2023-04-05T04:20:05;93940.91;;;-0.41;100.00
5879;BME280;2965;42.640;23.370;2023-04-05T04:22:36;93939.84;;;-0.39;100.00
5879;BME280;2965;42.640;23.370;2023-04-05T04:25:04;93948.22;;;-0.37;100.00
5879;BME280;2965;42.640;23.370;2023-04-05T04:27:30;93950.78;;;-0.37;100.00
5879;BME280;2965;42.640;23.370;2023-04-05T04:29:56;93947.97;;;-0.34;100.00
5879;BME280;2965;42.640;23.370;2023-04-05T04:32:27;93954.06;;;-0.25;100.00
5879;BME280;2965;42.640;23.370;2023-04-05T04:35:15;93957.19;;;-0.21;100.00
5879;BME280;2965;42.640;23.370;2023-04-05T04:37:54;93959.34;;;-0.27;100.00
5879;BME280;2965;42.640;23.370;2023-04-05T04:40:32;93950.41;;;-0.22;100.00
5879;BME280;2965;42.640;23.370;2023-04-05T04:43:08;93954.22;;;-0.17;100.00
5879;BME280;2965;42.640;23.370;2023-04-05T04:45:46;93959.66;;;-0.10;100.00
5879;BME280;2965;42.640;23.370;2023-04-05T04:48:13;93963.59;;;-0.06;100.00
5879;BME280;2965;42.640;23.370;2023-04-05T04:50:41;93959.13;;;-0.04;100.00
5879;BME280;2965;42.640;23.370;2023-04-05T04:53:07;93965.66;;;0.00;100.00
5879;BME280;2965;42.640;23.370;2023-04-05T04:55:33;93969.53;;;0.04;100.00
5879;BME280;2965;42.640;23.370;2023-04-05T04:58:00;93965.75;;;0.08;100.00
5879;BME280;2965;42.640;23.370;2023-04-05T05:00:33;93974.34;;;0.18;100.00
5879;BME280;2965;42.640;23.370;2023-04-05T05:02:58;93979.88;;;0.23;100.00
5879;BME280;2965;42.640;23.370;2023-04-05T05:05:24;93986.78;;;0.23;100.00
5879;BME280;2965;42.640;23.370;2023-04-05T05:07:50;93988.41;;;0.14;100.00
5879;BME280;2965;42.640;23.370;2023-04-05T05:10:16;93996.63;;;0.08;100.00
5879;BME280;2965;42.640;23.370;2023-04-05T05:12:43;93990.81;;;0.06;100.00
5879;BME280;2965;42.640;23.370;2023-04-05T05:15:09;93994.34;;;0.05;100.00
5879;BME280;2965;42.640;23.370;2023-04-05T05:17:34;93987.84;;;0.01;100.00
5879;BME280;2965;42.640;23.370;2023-04-05T05:20:00;93985.69;;;0.06;100.00
5879;BME280;2965;42.640;23.370;2023-04-05T05:22:28;93999.50;;;0.05;100.00
5879;BME280;2965;42.640;23.370;2023-04-05T05:24:53;93994.63;;;0.12;100.00
5879;BME280;2965;42.640;23.370;2023-04-05T05:27:18;93994.06;;;0.08;100.00
5879;BME280;2965;42.640;23.370;2023-04-05T05:29:46;93997.59;;;0.07;100.00
5879;BME280;2965;42.640;23.370;2023-04-05T05:32:11;93993.81;;;0.11;100.00
5879;BME280;2965;42.640;23.370;2023-04-05T05:34:43;93983.78;;;0.08;100.00
5879;BME280;2965;42.640;23.370;2023-04-05T05:37:10;93990.56;;;0.19;100.00
5879;BME280;2965;42.640;23.370;2023-04-05T05:39:36;93985.44;;;0.29;100.00
5879;BME280;2965;42.640;23.370;2023-04-05T05:42:01;93990.59;;;0.29;100.00
5879;BME280;2965;42.640;23.370;2023-04-05T05:44:28;93992.75;;;0.23;100.00
5879;BME280;2965;42.640;23.370;2023-04-05T05:46:54;93992.75;;;0.23;100.00
5879;BME280;2965;42.640;23.370;2023-04-05T05:51:56;93991.69;;;0.45;100.00
5879;BME280;2965;42.640;23.370;2023-04-05T05:54:22;93986.00;;;0.52;100.00
5879;BME280;2965;42.640;23.370;2023-04-05T05:56:47;93990.72;;;0.56;100.00
5879;BME280;2965;42.640;23.370;2023-04-05T05:59:13;93989.25;;;0.63;100.00
5879;BME280;2965;42.640;23.370;2023-04-05T06:01:38;93989.25;;;0.63;100.00
5879;BME280;2965;42.640;23.370;2023-04-05T06:04:07;94004.69;;;0.83;100.00
5879;BME280;2965;42.640;23.370;2023-04-05T06:06:33;93994.66;;;0.80;100.00
5879;BME280;2965;42.640;23.370;2023-04-05T06:08:59;93998.69;;;0.92;100.00
5879;BME280;2965;42.640;23.370;2023-04-05T06:11:24;94002.25;;;0.91;100.00
5879;BME280;2965;42.640;23.370;2023-04-05T06:13:51;94008.59;;;0.96;100.00
5879;BME280;2965;42.640;23.370;2023-04-05T06:16:17;94012.41;;;1.02;100.00
5879;BME280;2965;42.640;23.370;2023-04-05T06:18:42;94028.25;;;1.07;100.00
5879;BME280;2965;42.640;23.370;2023-04-05T06:21:08;94029.63;;;1.11;100.00
5879;BME280;2965;42.640;23.370;2023-04-05T06:23:34;94033.94;;;1.20;100.00
5879;BME280;2965;42.640;23.370;2023-04-05T06:26:00;94028.06;;;1.28;100.00
5879;BME280;2965;42.640;23.370;2023-04-05T06:28:26;94042.56;;;1.39;100.00
5879;BME280;2965;42.640;23.370;2023-04-05T06:30:52;94038.38;;;1.38;100.00
5879;BME280;2965;42.640;23.370;2023-04-05T06:33:18;94036.19;;;1.43;100.00
5879;BME280;2965;42.640;23.370;2023-04-05T06:35:43;94031.69;;;1.45;100.00
5879;BME280;2965;42.640;23.370;2023-04-05T06:38:08;94045.09;;;1.58;100.00
5879;BME280;2965;42.640;23.370;2023-04-05T06:40:34;94041.16;;;1.54;100.00
5879;BME280;2965;42.640;23.370;2023-04-05T06:42:59;94038.72;;;1.62;100.00
5879;BME280;2965;42.640;23.370;2023-04-05T06:45:25;94038.81;;;1.70;100.00
5879;BME280;2965;42.640;23.370;2023-04-05T06:47:50;94038.56;;;1.73;100.00
5879;BME280;2965;42.640;23.370;2023-04-05T06:50:15;94049.53;;;1.75;100.00
5879;BME280;2965;42.640;23.370;2023-04-05T06:52:41;94064.19;;;1.75;100.00
5879;BME280;2965;42.640;23.370;2023-04-05T06:55:06;94055.28;;;1.97;100.00
5879;BME280;2965;42.640;23.370;2023-04-05T06:57:33;94054.53;;;1.87;100.00
5879;BME280;2965;42.640;23.370;2023-04-05T06:59:58;94065.50;;;1.89;100.00
5879;BME280;2965;42.640;23.370;2023-04-05T07:02:24;94075.06;;;1.69;100.00
5879;BME280;2965;42.640;23.370;2023-04-05T07:04:49;94068.41;;;1.66;100.00
5879;BME280;2965;42.640;23.370;2023-04-05T07:07:15;94091.31;;;1.79;100.00
5879;BME280;2965;42.640;23.370;2023-04-05T07:09:41;94087.38;;;1.85;100.00
5879;BME280;2965;42.640;23.370;2023-04-05T07:12:07;94092.19;;;1.60;100.00
5879;BME280;2965;42.640;23.370;2023-04-05T07:14:35;94090.00;;;1.65;100.00
5879;BME280;2965;42.640;23.370;2023-04-05T07:17:01;94090.75;;;1.85;100.00
5879;BME280;2965;42.640;23.370;2023-04-05T07:19:27;94093.78;;;1.71;100.00
5879;BME280;2965;42.640;23.370;2023-04-05T07:21:52;94102.44;;;1.80;100.00
5879;BME280;2965;42.640;23.370;2023-04-05T07:24:18;94102.44;;;1.80;100.00
5879;BME280;2965;42.640;23.370;2023-04-05T07:26:43;94101.50;;;1.81;100.00
5879;BME280;2965;42.640;23.370;2023-04-05T07:29:10;94092.41;;;1.76;100.00
5879;BME280;2965;42.640;23.370;2023-04-05T07:31:35;94098.53;;;1.75;100.00
5879;BME280;2965;42.640;23.370;2023-04-05T07:34:02;94102.44;;;1.80;100.00
5879;BME280;2965;42.640;23.370;2023-04-05T07:36:27;94102.72;;;1.76;100.00
5879;BME280;2965;42.640;23.370;2023-04-05T07:38:58;94108.44;;;1.70;100.00
5879;BME280;2965;42.640;23.370;2023-04-05T07:41:24;94116.84;;;1.72;100.00
5879;BME280;2965;42.640;23.370;2023-04-05T07:43:50;94109.81;;;1.74;100.00
5879;BME280;2965;42.640;23.370;2023-04-05T07:46:16;94113.59;;;1.70;100.00
5879;BME280;2965;42.640;23.370;2023-04-05T07:48:41;94102.22;;;1.63;100.00
5879;BME280;2965;42.640;23.370;2023-04-05T07:51:08;94106.84;;;1.69;100.00
5879;BME280;2965;42.640;23.370;2023-04-05T07:53:35;94117.16;;;1.69;100.00
5879;BME280;2965;42.640;23.370;2023-04-05T07:56:11;94120.56;;;1.60;100.00
5879;BME280;2965;42.640;23.370;2023-04-05T07:58:38;94118.50;;;1.73;100.00
5879;BME280;2965;42.640;23.370;2023-04-05T08:01:06;94112.38;;;1.74;100.00
5879;BME280;2965;42.640;23.370;2023-04-05T08:06:12;94117.69;;;1.63;100.00
5879;BME280;2965;42.640;23.370;2023-04-05T08:08:38;94125.03;;;1.58;100.00
5879;BME280;2965;42.640;23.370;2023-04-05T08:11:04;94129.06;;;1.70;100.00
5879;BME280;2965;42.640;23.370;2023-04-05T08:13:30;94124.19;;;1.67;100.00
5879;BME280;2965;42.640;23.370;2023-04-05T08:15:55;94130.69;;;1.71;100.00
5879;BME280;2965;42.640;23.370;2023-04-05T08:18:21;94137.47;;;1.72;100.00
5879;BME280;2965;42.640;23.370;2023-04-05T08:20:53;94133.44;;;1.60;100.00
5879;BME280;2965;42.640;23.370;2023-04-05T08:23:18;94128.00;;;1.63;100.00
5879;BME280;2965;42.640;23.370;2023-04-05T08:25:44;94141.03;;;1.62;100.00
5879;BME280;2965;42.640;23.370;2023-04-05T08:28:10;94143.88;;;1.59;100.00
5879;BME280;2965;42.640;23.370;2023-04-05T08:30:35;94136.69;;;1.62;100.00
5879;BME280;2965;42.640;23.370;2023-04-05T08:33:01;94135.72;;;1.63;100.00
5879;BME280;2965;42.640;23.370;2023-04-05T08:35:26;94129.50;;;1.66;100.00
5879;BME280;2965;42.640;23.370;2023-04-05T08:37:52;94133.66;;;1.76;100.00
5879;BME280;2965;42.640;23.370;2023-04-05T08:40:17;94131.75;;;1.88;100.00
5879;BME280;2965;42.640;23.370;2023-04-05T08:42:51;94141.09;;;1.99;100.00
5879;BME280;2965;42.640;23.370;2023-04-05T08:45:21;94151.03;;;1.84;100.00
5879;BME280;2965;42.640;23.370;2023-04-05T08:47:51;94150.88;;;1.86;100.00
5879;BME280;2965;42.640;23.370;2023-04-05T08:50:18;94145.63;;;1.77;100.00
5879;BME280;2965;42.640;23.370;2023-04-05T08:52:45;94157.56;;;1.79;100.00
5879;BME280;2965;42.640;23.370;2023-04-05T08:55:14;94155.94;;;1.68;100.00
5879;BME280;2965;42.640;23.370;2023-04-05T08:57:42;94152.25;;;1.90;100.00
5879;BME280;2965;42.640;23.370;2023-04-05T09:00:08;94159.47;;;1.76;100.00
5879;BME280;2965;42.640;23.370;2023-04-05T09:02:36;94171.69;;;1.74;100.00
5879;BME280;2965;42.640;23.370;2023-04-05T09:05:03;94154.56;;;1.93;100.00
5879;BME280;2965;42.640;23.370;2023-04-05T09:07:34;94168.81;;;1.97;100.00
5879;BME280;2965;42.640;23.370;2023-04-05T09:10:00;94159.44;;;1.96;100.00
5879;BME280;2965;42.640;23.370;2023-04-05T09:12:27;94174.66;;;1.89;100.00
5879;BME280;2965;42.640;23.370;2023-04-05T09:14:54;94172.22;;;1.88;100.00
5879;BME280;2965;42.640;23.370;2023-04-05T09:17:20;94172.19;;;1.97;100.00
5879;BME280;2965;42.640;23.370;2023-04-05T09:19:46;94167.56;;;2.01;100.00
5879;BME280;2965;42.640;23.370;2023-04-05T09:22:15;94170.53;;;2.06;100.00
5879;BME280;2965;42.640;23.370;2023-04-05T09:24:44;94159.84;;;2.01;100.00
5879;BME280;2965;42.640;23.370;2023-04-05T09:27:18;94170.53;;;2.06;100.00
5879;BME280;2965;42.640;23.370;2023-04-05T09:29:45;94160.91;;;1.98;100.00
5879;BME280;2965;42.640;23.370;2023-04-05T09:32:12;94162.66;;;2.08;100.00
5879;BME280;2965;42.640;23.370;2023-04-05T09:34:39;94159.13;;;1.99;100.00
5879;BME280;2965;42.640;23.370;2023-04-05T09:37:20;94162.94;;;2.05;100.00
5879;BME280;2965;42.640;23.370;2023-04-05T09:39:47;94164.03;;;2.02;100.00
5879;BME280;2965;42.640;23.370;2023-04-05T09:42:20;94159.09;;;2.18;100.00
5879;BME280;2965;42.640;23.370;2023-04-05T09:44:58;94155.56;;;2.19;100.00
5879;BME280;2965;42.640;23.370;2023-04-05T09:47:30;94152.69;;;2.60;100.00
5879;BME280;2965;42.640;23.370;2023-04-05T09:49:58;94161.34;;;2.68;100.00
5879;BME280;2965;42.640;23.370;2023-04-05T09:52:26;94161.22;;;2.88;100.00
5879;BME280;2965;42.640;23.370;2023-04-05T09:54:54;94157.69;;;2.89;100.00
5879;BME280;2965;42.640;23.370;2023-04-05T09:57:24;94168.59;;;2.83;100.00
5879;BME280;2965;42.640;23.370;2023-04-05T09:59:51;94168.44;;;2.66;100.00
5879;BME280;2965;42.640;23.370;2023-04-05T10:02:17;94171.06;;;2.74;100.00
5879;BME280;2965;42.640;23.370;2023-04-05T10:04:46;94164.88;;;2.67;100.00
5879;BME280;2965;42.640;23.370;2023-04-05T10:07:13;94165.34;;;2.81;100.00
5879;BME280;2965;42.640;23.370;2023-04-05T10:09:40;94161.34;;;2.68;100.00
5879;BME280;2965;42.640;23.370;2023-04-05T10:12:07;94165.63;;;2.77;100.00
5879;BME280;2965;42.640;23.370;2023-04-05T10:14:34;94173.41;;;2.95;100.00
5879;BME280;2965;42.640;23.370;2023-04-05T10:22:29;94176.94;;;2.76;100.00
5879;BME280;2965;42.640;23.370;2023-04-05T10:25:20;94175.41;;;2.84;100.00
5879;BME280;2965;42.640;23.370;2023-04-05T10:27:53;94171.94;;;2.65;100.00
5879;BME280;2965;42.640;23.370;2023-04-05T10:30:25;94178.63;;;2.31;100.00
5879;BME280;2965;42.640;23.370;2023-04-05T10:38:26;94182.16;;;2.30;100.00
5879;BME280;2965;42.640;23.370;2023-04-05T10:40:56;94183.28;;;2.17;100.00
5879;BME280;2965;42.640;23.370;2023-04-05T10:43:27;94181.63;;;2.16;100.00
5879;BME280;2965;42.640;23.370;2023-04-05T10:45:56;94184.66;;;2.02;100.00
5879;BME280;2965;42.640;23.370;2023-04-05T10:48:43;94174.81;;;2.35;100.00
5879;BME280;2965;42.640;23.370;2023-04-05T10:51:12;94190.97;;;2.64;100.00
5879;BME280;2965;42.640;23.370;2023-04-05T10:53:38;94190.97;;;2.37;100.00
5879;BME280;2965;42.640;23.370;2023-04-05T10:56:05;94193.38;;;2.48;100.00
5879;BME280;2965;42.640;23.370;2023-04-05T10:58:31;94187.47;;;2.93;100.00
5879;BME280;2965;42.640;23.370;2023-04-05T11:00:57;94179.47;;;2.86;100.00
5879;BME280;2965;42.640;23.370;2023-04-05T11:08:58;94199.63;;;3.00;100.00
5879;BME280;2965;42.640;23.370;2023-04-05T11:11:24;94199.19;;;3.05;100.00
5879;BME280;2965;42.640;23.370;2023-04-05T11:13:55;94185.63;;;3.03;100.00
5879;BME280;2965;42.640;23.370;2023-04-05T11:16:23;94192.53;;;3.30;100.00
5879;BME280;2965;42.640;23.370;2023-04-05T11:18:50;94189.03;;;3.57;100.00
5879;BME280;2965;42.640;23.370;2023-04-05T11:21:24;94203.47;;;3.24;100.00
5879;BME280;2965;42.640;23.370;2023-04-05T11:24:06;94211.28;;;3.32;100.00
5879;BME280;2965;42.640;23.370;2023-04-05T11:29:19;94192.31;;;3.23;100.00
5879;BME280;2965;42.640;23.370;2023-04-05T11:32:11;94200.56;;;3.45;100.00
5879;BME280;2965;42.640;23.370;2023-04-05T11:34:36;94202.06;;;3.29;100.00
5879;BME280;2965;42.640;23.370;2023-04-05T11:37:02;94201.38;;;3.27;100.00
5879;BME280;2965;42.640;23.370;2023-04-05T11:39:28;94190.66;;;3.58;100.00
5879;BME280;2965;42.640;23.370;2023-04-05T11:42:09;94195.41;;;3.45;100.00
5879;BME280;2965;42.640;23.370;2023-04-05T11:47:09;94204.91;;;3.26;100.00
5879;BME280;2965;42.640;23.370;2023-04-05T11:49:38;94206.63;;;3.36;100.00
5879;BME280;2965;42.640;23.370;2023-04-05T11:52:11;94196.44;;;3.52;100.00
5879;BME280;2965;42.640;23.370;2023-04-05T11:54:37;94205.28;;;3.32;100.00
5879;BME280;2965;42.640;23.370;2023-04-05T11:57:03;94197.31;;;3.43;100.00
5879;BME280;2965;42.640;23.370;2023-04-05T11:59:30;94209.78;;;3.12;100.00
5879;BME280;2965;42.640;23.370;2023-04-05T12:02:00;94205.59;;;3.28;100.00
5879;BME280;2965;42.640;23.370;2023-04-05T12:04:26;94212.09;;;3.33;100.00
5879;BME280;2965;42.640;23.370;2023-04-05T12:07:11;94214.53;;;3.34;100.00
5879;BME280;2965;42.640;23.370;2023-04-05T12:09:57;94198.66;;;3.47;100.00
5879;BME280;2965;42.640;23.370;2023-04-05T12:12:23;94204.78;;;3.82;100.00
5879;BME280;2965;42.640;23.370;2023-04-05T12:14:48;94197.94;;;3.72;100.00
5879;BME280;2965;42.640;23.370;2023-04-05T12:17:13;94209.28;;;3.79;100.00
5879;BME280;2965;42.640;23.370;2023-04-05T12:19:39;94198.13;;;3.61;100.00
5879;BME280;2965;42.640;23.370;2023-04-05T12:22:05;94205.22;;;3.95;100.00
5879;BME280;2965;42.640;23.370;2023-04-05T12:24:31;94207.22;;;4.27;100.00
5879;BME280;2965;42.640;23.370;2023-04-05T12:26:56;94210.88;;;4.16;100.00
5879;BME280;2965;42.640;23.370;2023-04-05T12:29:22;94205.56;;;4.00;100.00
5879;BME280;2965;42.640;23.370;2023-04-05T12:31:49;94218.88;;;4.05;100.00
5879;BME280;2965;42.640;23.370;2023-04-05T12:34:22;94204.09;;;4.23;100.00
5879;BME280;2965;42.640;23.370;2023-04-05T12:36:48;94210.38;;;4.47;100.00
5879;BME280;2965;42.640;23.370;2023-04-05T12:39:15;94201.09;;;4.62;100.00
5879;BME280;2965;42.640;23.370;2023-04-05T12:41:41;94208.38;;;4.33;100.00
5879;BME280;2965;42.640;23.370;2023-04-05T12:44:27;94211.13;;;4.57;100.00
5879;BME280;2965;42.640;23.370;2023-04-05T12:46:59;94200.25;;;4.88;100.00
5879;BME280;2965;42.640;23.370;2023-04-05T12:49:26;94211.75;;;4.59;100.00
5879;BME280;2965;42.640;23.370;2023-04-05T12:51:52;94202.25;;;5.02;100.00
5879;BME280;2965;42.640;23.370;2023-04-05T12:54:21;94210.09;;;5.35;100.00
5879;BME280;2965;42.640;23.370;2023-04-05T12:56:50;94208.69;;;5.40;100.00
5879;BME280;2965;42.640;23.370;2023-04-05T12:59:17;94213.38;;;5.45;100.00
5879;BME280;2965;42.640;23.370;2023-04-05T13:01:42;94204.28;;;5.49;100.00
5879;BME280;2965;42.640;23.370;2023-04-05T13:04:07;94212.34;;;5.21;100.00
5879;BME280;2965;42.640;23.370;2023-04-05T13:06:33;94218.56;;;5.37;100.00
5879;BME280;2965;42.640;23.370;2023-04-05T13:08:58;94215.59;;;4.81;100.00
5879;BME280;2965;42.640;23.370;2023-04-05T13:11:23;94220.72;;;4.39;100.00
5879;BME280;2965;42.640;23.370;2023-04-05T13:13:49;94227.13;;;4.52;100.00
5879;BME280;2965;42.640;23.370;2023-04-05T13:16:15;94238.34;;;4.35;100.00
5879;BME280;2965;42.640;23.370;2023-04-05T13:18:40;94223.97;;;4.41;100.00
5879;BME280;2965;42.640;23.370;2023-04-05T13:21:06;94228.47;;;4.99;100.00
5879;BME280;2965;42.640;23.370;2023-04-05T13:23:36;94222.81;;;5.70;100.00
5879;BME280;2965;42.640;23.370;2023-04-05T13:26:02;94226.53;;;5.60;99.93
5879;BME280;2965;42.640;23.370;2023-04-05T13:28:28;94220.00;;;5.39;100.00
5879;BME280;2965;42.640;23.370;2023-04-05T13:30:54;94213.41;;;5.77;93.94
5879;BME280;2965;42.640;23.370;2023-04-05T13:33:19;94218.91;;;4.99;92.87
5879;BME280;2965;42.640;23.370;2023-04-05T13:35:45;94233.09;;;4.79;93.93
5879;BME280;2965;42.640;23.370;2023-04-05T13:38:11;94217.72;;;5.28;92.31
5879;BME280;2965;42.640;23.370;2023-04-05T13:40:36;94211.06;;;5.34;88.46
5879;BME280;2965;42.640;23.370;2023-04-05T13:43:04;94211.97;;;5.67;84.69
5879;BME280;2965;42.640;23.370;2023-04-05T13:45:30;94210.84;;;6.18;87.36
5879;BME280;2965;42.640;23.370;2023-04-05T13:47:56;94216.38;;;5.99;81.86
5879;BME280;2965;42.640;23.370;2023-04-05T13:50:22;94224.50;;;6.04;85.11
5879;BME280;2965;42.640;23.370;2023-04-05T13:52:48;94217.00;;;5.76;84.36
5879;BME280;2965;42.640;23.370;2023-04-05T13:55:13;94203.03;;;5.77;82.45
5879;BME280;2965;42.640;23.370;2023-04-05T13:57:39;94222.22;;;6.17;82.09
5879;BME280;2965;42.640;23.370;2023-04-05T14:00:05;94215.06;;;6.27;79.81
5879;BME280;2965;42.640;23.370;2023-04-05T14:02:30;94214.41;;;6.34;78.03
5879;BME280;2965;42.640;23.370;2023-04-05T14:04:56;94216.13;;;5.43;79.03
5879;BME280;2965;42.640;23.370;2023-04-05T14:07:21;94213.09;;;5.72;83.39
5879;BME280;2965;42.640;23.370;2023-04-05T14:09:47;94214.59;;;5.16;85.34
5879;BME280;2965;42.640;23.370;2023-04-05T14:12:12;94214.28;;;5.19;93.25
5879;BME280;2965;42.640;23.370;2023-04-05T14:14:38;94216.25;;;5.34;89.68
5879;BME280;2965;42.640;23.370;2023-04-05T14:17:03;94230.06;;;4.92;89.67
5879;BME280;2965;42.640;23.370;2023-04-05T14:19:29;94225.97;;;4.55;91.22
5879;BME280;2965;42.640;23.370;2023-04-05T14:21:54;94230.16;;;4.48;90.41
5879;BME280;2965;42.640;23.370;2023-04-05T14:24:20;94234.13;;;4.34;91.54
5879;BME280;2965;42.640;23.370;2023-04-05T14:26:46;94233.34;;;3.72;94.54
5879;BME280;2965;42.640;23.370;2023-04-05T14:29:17;94245.38;;;3.63;96.67
5879;BME280;2965;42.640;23.370;2023-04-05T14:31:43;94242.06;;;3.25;100.00
5879;BME280;2965;42.640;23.370;2023-04-05T14:34:08;94238.38;;;3.10;100.00
5879;BME280;2965;42.640;23.370;2023-04-05T14:36:34;94234.13;;;3.09;100.00
5879;BME280;2965;42.640;23.370;2023-04-05T14:39:00;94230.91;;;2.80;100.00
5879;BME280;2965;42.640;23.370;2023-04-05T14:41:25;94227.84;;;2.94;100.00
5879;BME280;2965;42.640;23.370;2023-04-05T14:43:52;94231.94;;;3.14;100.00
5879;BME280;2965;42.640;23.370;2023-04-05T14:46:17;94246.63;;;3.41;100.00
5879;BME280;2965;42.640;23.370;2023-04-05T14:48:43;94243.88;;;3.43;100.00
5879;BME280;2965;42.640;23.370;2023-04-05T14:51:08;94246.22;;;3.36;100.00
5879;BME280;2965;42.640;23.370;2023-04-05T14:53:33;94246.13;;;3.73;100.00
5879;BME280;2965;42.640;23.370;2023-04-05T14:55:59;94253.78;;;4.01;100.00
5879;BME280;2965;42.640;23.370;2023-04-05T14:58:24;94260.91;;;3.63;99.49
5879;BME280;2965;42.640;23.370;2023-04-05T15:00:50;94260.03;;;3.45;100.00
5879;BME280;2965;42.640;23.370;2023-04-05T15:03:16;94259.97;;;3.37;100.00
5879;BME280;2965;42.640;23.370;2023-04-05T15:05:44;94256.13;;;3.41;99.93
5879;BME280;2965;42.640;23.370;2023-04-05T15:08:09;94257.25;;;3.38;100.00
5879;BME280;2965;42.640;23.370;2023-04-05T15:10:35;94261.63;;;3.10;100.00
5879;BME280;2965;42.640;23.370;2023-04-05T15:13:00;94262.09;;;2.96;100.00
5879;BME280;2965;42.640;23.370;2023-04-05T15:15:26;94261.78;;;2.71;100.00
5879;BME280;2965;42.640;23.370;2023-04-05T15:17:51;94257.34;;;2.54;100.00
5879;BME280;2965;42.640;23.370;2023-04-05T18:36:48;94281.31;;;0.08;100.00
5879;BME280;2965;42.640;23.370;2023-04-05T18:39:14;94286.16;;;0.01;100.00
5879;BME280;2965;42.640;23.370;2023-04-05T18:41:39;94284.06;;;-0.05;100.00
5879;BME280;2965;42.640;23.370;2023-04-05T18:44:05;94288.53;;;-0.07;100.00
5879;BME280;2965;42.640;23.370;2023-04-05T18:46:30;94288.78;;;-0.10;100.00
5879;BME280;2965;42.640;23.370;2023-04-05T18:48:56;94288.53;;;-0.07;100.00
5879;BME280;2965;42.640;23.370;2023-04-05T18:51:24;94289.06;;;-0.13;100.00
5879;BME280;2965;42.640;23.370;2023-04-05T18:53:51;94288.72;;;-0.20;100.00
5879;BME280;2965;42.640;23.370;2023-04-05T18:56:17;94296.28;;;-0.18;100.00
5879;BME280;2965;42.640;23.370;2023-04-05T18:58:43;94294.66;;;-0.19;100.00
5879;BME280;2965;42.640;23.370;2023-04-05T19:01:08;94299.56;;;-0.16;100.00
5879;BME280;2965;42.640;23.370;2023-04-05T19:03:37;94292.81;;;-0.17;100.00
5879;BME280;2965;42.640;23.370;2023-04-05T19:06:03;94298.19;;;-0.20;100.00
5879;BME280;2965;42.640;23.370;2023-04-05T19:08:28;94296.06;;;-0.15;100.00
5879;BME280;2965;42.640;23.370;2023-04-05T19:10:53;94298.50;;;-0.14;100.00
5879;BME280;2965;42.640;23.370;2023-04-05T19:13:19;94307.06;;;-0.13;100.00
5879;BME280;2965;42.640;23.370;2023-04-05T19:15:44;94305.84;;;-0.09;100.00
5879;BME280;2965;42.640;23.370;2023-04-05T19:18:10;94309.88;;;-0.16;100.00
5879;BME280;2965;42.640;23.370;2023-04-05T19:20:35;94302.00;;;-0.15;100.00
5879;BME280;2965;42.640;23.370;2023-04-05T19:23:01;94295.25;;;-0.16;100.00
5879;BME280;2965;42.640;23.370;2023-04-05T19:25:26;94300.69;;;-0.09;100.00
5879;BME280;2965;42.640;23.370;2023-04-05T19:27:51;94295.81;;;-0.12;100.00
5879;BME280;2965;42.640;23.370;2023-04-05T19:30:17;94300.97;;;-0.12;100.00
5879;BME280;2965;42.640;23.370;2023-04-05T19:32:42;94295.31;;;-0.06;100.00
5879;BME280;2965;42.640;23.370;2023-04-05T19:35:08;94294.94;;;-0.02;100.00
5879;BME280;2965;42.640;23.370;2023-04-05T19:37:34;94301.84;;;-0.02;100.00
5879;BME280;2965;42.640;23.370;2023-04-05T19:40:00;94296.19;;;0.04;100.00
5879;BME280;2965;42.640;23.370;2023-04-05T19:42:26;94298.91;;;0.03;100.00
5879;BME280;2965;42.640;23.370;2023-04-05T19:44:53;94297.94;;;0.04;100.00
5879;BME280;2965;42.640;23.370;2023-04-05T19:47:20;94297.13;;;0.03;100.00
5879;BME280;2965;42.640;23.370;2023-04-05T19:49:46;94298.09;;;0.02;100.00
5879;BME280;2965;42.640;23.370;2023-04-05T19:52:33;94285.09;;;0.04;100.00
5879;BME280;2965;42.640;23.370;2023-04-05T19:54:59;94290.03;;;-0.05;100.00
5879;BME280;2965;42.640;23.370;2023-04-05T19:57:25;94279.69;;;-0.14;100.00
5879;BME280;2965;42.640;23.370;2023-04-05T19:59:51;94284.34;;;-0.08;100.00
5879;BME280;2965;42.640;23.370;2023-04-05T20:02:34;94279.56;;;-0.13;100.00
5879;BME280;2965;42.640;23.370;2023-04-05T20:05:02;94280.38;;;-0.12;100.00
5879;BME280;2965;42.640;23.370;2023-04-05T20:07:34;94271.06;;;-0.13;100.00
5879;BME280;2965;42.640;23.370;2023-04-05T20:10:00;94274.09;;;-0.19;100.00
5879;BME280;2965;42.640;23.370;2023-04-05T20:12:25;94274.59;;;-0.26;100.00
5879;BME280;2965;42.640;23.370;2023-04-05T20:14:51;94269.47;;;-0.26;100.00
5879;BME280;2965;42.640;23.370;2023-04-05T20:17:17;94265.38;;;-0.28;100.00
5879;BME280;2965;42.640;23.370;2023-04-05T20:19:54;94270.41;;;-0.27;100.00
5879;BME280;2965;42.640;23.370;2023-04-05T20:22:25;94277.66;;;-0.32;100.00
5879;BME280;2965;42.640;23.370;2023-04-05T20:24:51;94283.16;;;-0.36;100.00
5879;BME280;2965;42.640;23.370;2023-04-05T20:27:16;94283.97;;;-0.36;100.00
5879;BME280;2965;42.640;23.370;2023-04-05T20:29:41;94277.22;;;-0.37;100.00
5879;BME280;2965;42.640;23.370;2023-04-05T20:32:07;94277.94;;;-0.46;100.00
